Time;durP1;ratioP1;P1;durP2;ratioP2;P2;SDS_P1;SDS_P2;PMS_P1;PMS_P2;Temp;Humidity;BMP_temperature;BMP_pressure;BME280_temperature;BME280_humidity;BME280_pressure;Samples;Min_cycle;Max_cycle;Signal;HPM_P1;HPM_P2
2023/03/12 00:01:22;;;;;;;6.03;3.10;;;;;;;3.96;80.04;99014.63;4978380;28;20561;-41
2023/03/12 00:03:49;;;;;;;8.57;3.78;;;;;;;4.01;79.77;99012.09;4981301;28;20454;-42
2023/03/12 00:06:17;;;;;;;7.82;3.28;;;;;;;4.03;80.03;98995.03;4979241;28;20810;-42
2023/03/12 00:08:43;;;;;;;9.80;4.82;;;;;;;4.04;79.65;98995.88;4978562;28;20082;-42
2023/03/12 00:11:13;;;;;;;7.43;3.20;;;;;;;4.06;80.08;98992.47;4976105;28;20046;-44
2023/03/12 00:13:40;;;;;;;9.38;4.10;;;;;;;4.09;79.39;98995.06;4971087;28;20097;-47
2023/03/12 00:16:09;;;;;;;14.02;4.53;;;;;;;4.16;79.72;98995.13;4977186;28;20081;-47
2023/03/12 00:18:36;;;;;;;13.60;5.57;;;;;;;4.18;79.52;98994.28;4971997;28;20133;-44
2023/03/12 00:21:03;;;;;;;17.52;6.95;;;;;;;4.23;79.52;98991.75;4976696;28;20070;-44
2023/03/12 00:23:30;;;;;;;11.25;4.15;;;;;;;4.26;79.60;98986.66;4973356;28;20070;-47
2023/03/12 00:26:01;;;;;;;10.85;4.78;;;;;;;4.31;79.46;98986.66;4978143;28;20461;-41
2023/03/12 00:28:28;;;;;;;8.88;3.40;;;;;;;4.34;79.61;98984.97;4978242;28;20912;-45
2023/03/12 00:30:57;;;;;;;7.80;3.10;;;;;;;4.37;79.91;98990.13;4975825;28;20534;-44
2023/03/12 00:33:24;;;;;;;10.23;3.72;;;;;;;4.42;80.32;98981.59;4976424;28;20051;-43
2023/03/12 00:35:52;;;;;;;8.95;3.75;;;;;;;4.46;80.86;98983.34;4975241;28;20521;-41
2023/03/12 00:38:19;;;;;;;9.82;3.72;;;;;;;4.51;81.16;98976.50;4975854;28;20046;-41
2023/03/12 00:40:46;;;;;;;17.52;4.32;;;;;;;4.59;81.04;98979.97;4977859;28;20113;-46
2023/03/12 00:43:13;;;;;;;8.95;3.70;;;;;;;4.66;80.87;98987.69;4975077;28;20046;-43
2023/03/12 00:45:39;;;;;;;11.73;4.55;;;;;;;4.71;80.62;98992.00;4978776;28;20078;-43
2023/03/12 00:48:06;;;;;;;10.95;3.83;;;;;;;4.76;80.28;98986.84;4978315;28;20092;-44
2023/03/12 00:50:33;;;;;;;8.10;3.17;;;;;;;4.80;80.41;98983.44;4975751;28;20109;-40
2023/03/12 00:52:59;;;;;;;10.55;4.18;;;;;;;4.84;80.34;98985.19;4986756;28;20548;-39
2023/03/12 00:55:26;;;;;;;12.85;4.47;;;;;;;4.91;80.73;98992.91;4979599;28;20057;-43
2023/03/12 00:57:53;;;;;;;13.80;5.05;;;;;;;4.93;80.89;98992.06;4978827;28;20138;-42
2023/03/12 01:00:20;;;;;;;13.35;4.22;;;;;;;5.00;80.14;98985.25;4982227;28;20073;-47
2023/03/12 01:02:46;;;;;;;11.35;4.47;;;;;;;5.02;80.90;98983.53;4974873;28;20145;-43
2023/03/12 01:05:14;;;;;;;13.95;4.80;;;;;;;5.07;80.82;98986.94;4977047;28;20078;-43
2023/03/12 01:07:40;;;;;;;14.00;4.90;;;;;;;5.12;81.05;98990.41;4974299;28;20047;-41
2023/03/12 01:10:08;;;;;;;12.27;4.53;;;;;;;5.16;80.27;98986.13;4974592;28;20070;-44
2023/03/12 01:12:35;;;;;;;11.73;4.63;;;;;;;5.21;81.47;98978.44;4988400;28;20054;-46
2023/03/12 01:15:04;;;;;;;17.15;6.05;;;;;;;5.27;80.17;98984.44;4980372;28;20047;-42
2023/03/12 01:17:30;;;;;;;13.10;4.93;;;;;;;5.31;80.62;98984.44;4977644;28;20137;-43
2023/03/12 01:19:58;;;;;;;16.52;4.38;;;;;;;5.35;80.58;98987.03;4973637;28;20461;-44
2023/03/12 01:22:26;;;;;;;9.85;3.88;;;;;;;5.39;81.32;98983.63;4981991;28;20046;-41
2023/03/12 01:24:54;;;;;;;15.77;5.75;;;;;;;5.44;81.70;98985.31;4985990;28;20042;-44
2023/03/12 01:27:22;;;;;;;10.73;4.43;;;;;;;5.47;80.34;98985.34;4983213;28;20508;-42
2023/03/12 01:29:49;;;;;;;11.57;4.45;;;;;;;5.51;80.87;98989.63;4989260;28;20422;-45
2023/03/12 01:32:17;;;;;;;14.23;4.88;;;;;;;5.54;80.61;98987.03;4979647;28;20101;-43
2023/03/12 01:34:45;;;;;;;12.10;4.47;;;;;;;5.58;80.85;98991.34;4984726;28;20046;-42
2023/03/12 01:37:13;;;;;;;18.02;5.93;;;;;;;5.61;80.96;98983.59;4983608;28;20065;-45
2023/03/12 01:39:41;;;;;;;14.82;4.40;;;;;;;5.64;80.51;98978.47;4983102;28;20055;-44
2023/03/12 01:42:09;;;;;;;12.15;4.68;;;;;;;5.68;81.88;98978.47;4983473;28;20450;-42
2023/03/12 01:44:56;;;;;;;13.02;4.47;;;;;;;5.71;80.92;98987.03;4980999;28;20039;-42
2023/03/12 01:47:27;;;;;;;11.25;4.53;;;;;;;5.77;81.19;98973.34;4984327;28;20050;-43
2023/03/12 01:49:54;;;;;;;15.30;5.10;;;;;;;5.79;82.17;98976.78;4988339;28;20104;-44
2023/03/12 01:52:29;;;;;;;13.13;4.57;;;;;;;5.83;81.78;98982.75;4988990;28;20088;-44
2023/03/12 01:55:04;;;;;;;16.45;5.68;;;;;;;5.88;81.81;98975.91;4981546;28;20085;-44
2023/03/12 02:00:12;;;;;;;27.67;8.10;;;;;;;6.30;82.09;98979.31;5050150;28;20385;-42
2023/03/12 02:02:40;;;;;;;20.98;6.30;;;;;;;6.14;82.46;98982.75;4983325;28;20058;-42
2023/03/12 02:05:16;;;;;;;17.23;5.07;;;;;;;6.10;81.10;98976.75;4984981;28;20043;-44
2023/03/12 02:07:42;;;;;;;11.38;5.32;;;;;;;6.09;81.71;98969.91;4985679;28;20069;-44
2023/03/12 02:10:10;;;;;;;19.30;5.90;;;;;;;6.10;81.92;98973.31;4983158;28;20553;-48
2023/03/12 02:12:37;;;;;;;15.32;5.25;;;;;;;6.07;82.02;98971.63;4979325;28;20104;-43
2023/03/12 02:15:04;;;;;;;12.38;5.22;;;;;;;6.07;82.74;98979.34;4984745;28;20054;-44
2023/03/12 02:17:31;;;;;;;14.65;7.22;;;;;;;6.07;81.49;98969.06;4992741;28;20109;-44
2023/03/12 02:22:53;;;;;;;11.90;3.50;;;;;;;6.06;81.73;98969.91;5049941;27;20402;-41
2023/03/12 02:28:05;;;;;;;16.17;4.10;;;;;;;6.03;82.83;98969.88;5064574;28;20403;-44
2023/03/12 02:30:32;;;;;;;12.57;3.45;;;;;;;6.03;82.34;98975.03;5004703;28;20054;-46
2023/03/12 02:33:04;;;;;;;12.40;3.92;;;;;;;6.00;82.28;98970.75;5001032;28;20489;-41
2023/03/12 02:35:30;;;;;;;12.57;4.35;;;;;;;6.00;81.29;98975.03;4996944;28;20721;-43
2023/03/12 02:37:57;;;;;;;15.93;4.00;;;;;;;6.00;82.47;98975.91;5002726;28;20057;-45
2023/03/12 02:40:32;;;;;;;11.60;4.10;;;;;;;5.99;82.14;98973.31;4999235;28;20138;-47
2023/03/12 02:43:00;;;;;;;10.43;4.13;;;;;;;5.99;82.19;98981.03;5001340;28;20085;-46
2023/03/12 02:45:28;;;;;;;19.10;3.58;;;;;;;5.99;82.43;98979.34;5002406;28;20085;-48
2023/03/12 02:47:55;;;;;;;15.30;3.35;;;;;;;6.00;82.50;98982.75;4999226;28;20050;-44
2023/03/12 02:50:21;;;;;;;13.55;2.78;;;;;;;5.99;82.07;98978.47;5002583;28;20049;-47
2023/03/12 02:52:48;;;;;;;14.23;3.67;;;;;;;6.00;81.81;98986.19;5004554;28;20081;-45
2023/03/12 02:55:15;;;;;;;18.40;4.10;;;;;;;6.00;83.13;98982.75;4998134;28;20077;-43
2023/03/12 02:57:42;;;;;;;11.85;3.38;;;;;;;6.02;83.25;98983.59;4997560;28;20092;-47
2023/03/12 03:00:11;;;;;;;12.30;3.30;;;;;;;6.03;82.83;98985.31;4999574;28;20120;-47
2023/03/12 03:02:39;;;;;;;8.32;2.72;;;;;;;6.03;81.90;98985.31;5018630;28;20046;-42
2023/03/12 03:05:06;;;;;;;6.80;3.00;;;;;;;6.02;82.69;98978.47;5004769;28;20135;-44
2023/03/12 03:07:33;;;;;;;17.98;3.75;;;;;;;6.02;81.77;98983.59;5031023;28;20549;-45
2023/03/12 03:10:03;;;;;;;12.05;2.92;;;;;;;6.03;82.13;98998.16;5019100;28;20057;-43
2023/03/12 03:12:31;;;;;;;10.65;2.92;;;;;;;6.03;82.26;98995.59;5033525;28;20141;-40
2023/03/12 03:14:58;;;;;;;15.50;3.25;;;;;;;6.02;81.27;98988.75;5015444;28;20438;-44
2023/03/12 03:17:25;;;;;;;17.75;3.15;;;;;;;6.00;82.41;98993.88;5013920;28;20081;-47
2023/03/12 03:19:52;;;;;;;16.10;2.90;;;;;;;6.00;81.64;98990.44;5000876;28;20077;-45
2023/03/12 03:22:20;;;;;;;11.30;2.72;;;;;;;6.00;81.50;98991.31;4997217;28;20042;-45
2023/03/12 03:24:47;;;;;;;17.23;3.28;;;;;;;6.00;82.68;99000.72;5000273;28;20070;-43
2023/03/12 03:27:14;;;;;;;12.15;2.80;;;;;;;5.99;81.81;99011.88;5002596;28;20693;-42
2023/03/12 03:29:40;;;;;;;8.88;2.80;;;;;;;5.97;82.08;99011.00;4997899;28;20081;-44
2023/03/12 03:32:07;;;;;;;14.20;3.22;;;;;;;5.98;81.61;99018.72;4986095;28;20140;-44
2023/03/12 03:34:34;;;;;;;11.77;2.83;;;;;;;5.98;81.41;99029.00;4996422;28;20604;-43
2023/03/12 03:37:00;;;;;;;13.75;2.42;;;;;;;5.96;81.78;99035.00;4997768;28;20534;-45
2023/03/12 03:39:28;;;;;;;16.38;2.72;;;;;;;5.97;81.51;99031.56;4978470;28;20104;-43
2023/03/12 03:41:55;;;;;;;12.18;2.90;;;;;;;5.97;81.95;99035.00;4986820;28;20058;-43
2023/03/12 03:44:22;;;;;;;17.70;3.55;;;;;;;5.96;81.31;99035.88;4985355;28;20038;-45
2023/03/12 03:46:49;;;;;;;13.40;2.70;;;;;;;5.97;81.49;99034.16;4979343;28;20038;-45
2023/03/12 03:49:16;;;;;;;17.83;3.17;;;;;;;5.95;81.92;99015.31;4980348;28;20078;-45
2023/03/12 03:51:42;;;;;;;12.80;2.60;;;;;;;5.92;81.79;99019.59;4981659;28;20073;-44
2023/03/12 03:54:10;;;;;;;15.60;2.72;;;;;;;5.90;82.29;99036.72;4981436;28;20137;-46
2023/03/12 03:56:37;;;;;;;13.55;2.47;;;;;;;5.89;81.93;99042.75;4982182;28;20074;-44
2023/03/12 03:59:03;;;;;;;15.25;2.80;;;;;;;5.87;81.95;99057.28;4976934;28;20136;-44
2023/03/12 04:01:30;;;;;;;10.07;2.55;;;;;;;5.86;81.02;99065.84;4977079;28;20054;-44
2023/03/12 04:03:57;;;;;;;9.77;2.33;;;;;;;5.86;81.56;99071.00;4981878;28;20046;-41
2023/03/12 04:06:25;;;;;;;18.90;2.47;;;;;;;5.84;81.36;99070.13;4979205;28;20057;-45
2023/03/12 04:08:51;;;;;;;15.57;2.30;;;;;;;5.83;81.15;99065.84;4974772;28;20058;-43
2023/03/12 04:11:20;;;;;;;9.93;2.72;;;;;;;5.84;81.88;99062.41;4974822;28;20053;-44
2023/03/12 04:13:48;;;;;;;10.18;1.60;;;;;;;5.83;81.50;99065.84;4978159;28;20133;-41
2023/03/12 04:16:16;;;;;;;13.18;2.22;;;;;;;5.85;81.71;99068.44;4978104;28;20050;-46
2023/03/12 04:18:43;;;;;;;9.07;2.03;;;;;;;5.85;81.39;99069.28;4978406;28;20050;-44
2023/03/12 04:21:11;;;;;;;12.50;2.55;;;;;;;5.87;81.47;99062.44;4979876;28;20085;-44
2023/03/12 04:23:38;;;;;;;15.40;2.47;;;;;;;5.89;81.90;99065.88;4977433;28;20129;-46
2023/03/12 04:26:06;;;;;;;9.10;2.63;;;;;;;5.91;82.38;99069.28;4982999;28;20136;-44
2023/03/12 04:28:33;;;;;;;11.85;2.55;;;;;;;5.94;81.24;99072.72;4975472;28;20062;-41
2023/03/12 04:31:03;;;;;;;14.10;3.30;;;;;;;5.94;82.00;99063.28;4971989;28;20655;-45
2023/03/12 04:33:33;;;;;;;14.57;1.67;;;;;;;5.97;81.52;99059.84;4978769;28;20060;-44
2023/03/12 04:36:00;;;;;;;20.40;2.20;;;;;;;5.95;81.23;99053.88;4977001;28;20082;-42
2023/03/12 04:38:27;;;;;;;16.38;1.77;;;;;;;5.96;82.07;99065.84;4976129;28;20054;-42
2023/03/12 04:41:06;;;;;;;17.27;2.05;;;;;;;5.95;81.63;99065.00;4982415;28;20081;-47
2023/03/12 04:43:33;;;;;;;9.77;1.80;;;;;;;5.97;81.76;99062.41;4986007;28;20506;-46
2023/03/12 04:46:00;;;;;;;16.70;2.80;;;;;;;6.00;82.43;99067.56;4996947;28;20593;-45
2023/03/12 04:48:27;;;;;;;19.38;2.08;;;;;;;6.03;81.81;99072.72;4999854;28;20073;-49
2023/03/12 04:50:54;;;;;;;15.82;2.03;;;;;;;6.08;81.80;99083.88;4997630;28;20465;-42
2023/03/12 04:53:21;;;;;;;15.05;2.03;;;;;;;6.12;81.09;99088.16;4997804;28;20046;-47
2023/03/12 04:55:49;;;;;;;15.43;2.38;;;;;;;6.16;82.32;99089.03;4999965;28;20092;-42
2023/03/12 04:58:16;;;;;;;12.10;1.67;;;;;;;6.20;82.72;99089.88;4997773;28;20047;-41
2023/03/12 05:00:43;;;;;;;11.43;1.88;;;;;;;6.24;82.40;99087.31;4997906;28;20054;-48
2023/03/12 05:03:11;;;;;;;11.68;2.42;;;;;;;6.29;81.33;99100.19;5003398;28;20084;-44
2023/03/12 05:05:38;;;;;;;17.13;1.88;;;;;;;6.32;81.23;99095.03;4997297;28;20050;-44
2023/03/12 05:08:04;;;;;;;19.30;2.47;;;;;;;6.35;81.94;99105.28;4991298;28;20078;-44
2023/03/12 05:10:31;;;;;;;20.27;2.08;;;;;;;6.37;81.79;99103.59;5000349;28;20084;-44
2023/03/12 05:12:58;;;;;;;15.68;1.52;;;;;;;6.42;81.13;99109.59;4997294;28;20058;-43
2023/03/12 05:15:25;;;;;;;17.20;2.40;;;;;;;6.49;82.37;99107.00;4999133;28;20129;-42
2023/03/12 05:17:52;;;;;;;14.13;2.30;;;;;;;6.54;81.24;99110.44;4993376;28;20082;-41
2023/03/12 05:20:20;;;;;;;10.02;2.20;;;;;;;6.54;82.29;99103.56;4995400;28;20516;-44
2023/03/12 05:22:47;;;;;;;18.48;1.77;;;;;;;6.56;82.40;99108.72;5001041;28;20048;-45
2023/03/12 05:25:14;;;;;;;18.33;2.13;;;;;;;6.58;81.64;99112.13;4995351;28;20046;-43
2023/03/12 05:27:40;;;;;;;12.77;1.90;;;;;;;6.58;81.32;99112.13;4998548;28;20089;-44
2023/03/12 05:30:08;;;;;;;9.75;1.50;;;;;;;6.61;81.83;99125.00;5003791;28;20038;-44
2023/03/12 05:32:35;;;;;;;13.52;1.15;;;;;;;6.60;81.64;99125.00;5001134;28;20457;-42
2023/03/12 05:35:02;;;;;;;22.38;2.63;;;;;;;6.61;81.99;99121.56;4999515;28;20049;-41
2023/03/12 05:37:28;;;;;;;14.57;1.48;;;;;;;6.60;81.88;99128.44;5004769;28;20065;-44
2023/03/12 05:39:55;;;;;;;14.68;2.35;;;;;;;6.60;81.34;99128.44;4999320;28;20045;-43
2023/03/12 05:42:24;;;;;;;17.33;3.22;;;;;;;6.60;82.42;99137.88;5004776;28;20057;-41
2023/03/12 05:44:51;;;;;;;19.13;3.20;;;;;;;6.57;81.75;99141.31;5002332;28;20096;-43
2023/03/12 05:47:18;;;;;;;12.68;1.75;;;;;;;6.54;82.37;99134.44;4997017;28;20073;-43
2023/03/12 05:49:44;;;;;;;24.10;2.03;;;;;;;6.51;82.61;99136.16;5002898;28;20069;-45
2023/03/12 05:52:11;;;;;;;12.48;2.25;;;;;;;6.49;81.02;99143.88;5001133;28;20058;-41
2023/03/12 05:54:38;;;;;;;13.07;2.38;;;;;;;6.48;81.24;99131.03;4995098;28;20074;-44
2023/03/12 05:57:05;;;;;;;14.68;2.15;;;;;;;6.51;81.92;99131.88;5001274;28;20525;-45
2023/03/12 05:59:31;;;;;;;22.17;2.83;;;;;;;6.53;81.77;99139.59;4994170;28;20553;-46
2023/03/12 06:01:58;;;;;;;13.73;2.13;;;;;;;6.56;81.23;99134.44;4989835;28;20053;-45
2023/03/12 06:04:25;;;;;;;14.35;1.73;;;;;;;6.59;81.41;99139.59;4995119;28;20490;-43
2023/03/12 06:06:51;;;;;;;19.05;2.92;;;;;;;6.60;81.63;99138.72;4994019;28;20049;-43
2023/03/12 06:09:18;;;;;;;18.40;2.17;;;;;;;6.64;82.57;99135.28;4994804;28;20073;-46
2023/03/12 06:11:44;;;;;;;13.60;1.90;;;;;;;6.68;82.80;99136.13;5001828;28;20078;-45
2023/03/12 06:14:11;;;;;;;21.00;2.55;;;;;;;6.69;81.31;99136.13;5001475;28;20077;-47
2023/03/12 06:16:38;;;;;;;11.20;2.15;;;;;;;6.69;82.62;99136.13;4992126;28;20081;-44
2023/03/12 06:19:06;;;;;;;19.73;2.28;;;;;;;6.74;81.11;99146.44;5003035;28;20461;-41
2023/03/12 06:21:34;;;;;;;17.80;1.77;;;;;;;6.76;80.92;99144.69;5001048;28;20125;-47
2023/03/12 06:24:01;;;;;;;15.13;2.08;;;;;;;6.79;82.58;99136.13;4996820;28;20081;-45
2023/03/12 06:26:28;;;;;;;11.18;1.85;;;;;;;6.81;82.11;99140.41;4998964;28;20050;-46
2023/03/12 06:28:55;;;;;;;11.65;1.75;;;;;;;6.80;82.22;99138.69;5000705;28;20046;-45
2023/03/12 06:31:22;;;;;;;15.77;3.28;;;;;;;6.84;81.23;99133.53;4999396;28;20132;-42
2023/03/12 06:33:49;;;;;;;19.08;3.00;;;;;;;6.86;81.74;99142.97;4993092;28;20077;-42
2023/03/12 06:36:16;;;;;;;16.40;2.97;;;;;;;6.85;82.26;99156.69;4998804;28;20053;-45
2023/03/12 06:38:43;;;;;;;16.90;1.92;;;;;;;6.88;81.44;99151.56;4993817;28;20077;-44
2023/03/12 06:41:14;;;;;;;21.58;2.45;;;;;;;6.91;81.54;99153.25;4991526;28;20108;-45
2023/03/12 06:43:42;;;;;;;14.40;2.30;;;;;;;6.90;81.45;99144.69;4993331;28;20073;-42
2023/03/12 06:46:13;;;;;;;13.00;2.03;;;;;;;6.91;81.95;99156.69;4992795;28;20565;-43
2023/03/12 06:48:40;;;;;;;19.17;2.10;;;;;;;6.93;80.72;99160.09;5014668;28;20050;-45
2023/03/12 06:51:08;;;;;;;11.52;2.40;;;;;;;6.93;82.30;99170.41;4992966;28;20104;-44
2023/03/12 06:53:35;;;;;;;17.73;2.35;;;;;;;6.97;81.51;99180.72;4993141;28;20131;-44
2023/03/12 06:56:02;;;;;;;23.45;1.95;;;;;;;6.99;81.48;99173.84;4991380;28;20133;-48
2023/03/12 06:58:29;;;;;;;13.18;2.15;;;;;;;7.00;81.59;99178.13;4995642;28;20204;-45
2023/03/12 07:00:56;;;;;;;11.73;1.88;;;;;;;7.03;82.13;99176.41;4992983;28;20137;-41
2023/03/12 07:03:22;;;;;;;20.50;2.17;;;;;;;7.06;82.08;99180.69;4994566;28;20491;-45
2023/03/12 07:05:50;;;;;;;17.52;2.20;;;;;;;7.07;80.45;99182.41;4994238;28;20650;-43
2023/03/12 07:08:17;;;;;;;15.18;2.25;;;;;;;7.08;80.99;99197.00;4997589;28;20119;-43
2023/03/12 07:10:45;;;;;;;22.15;2.55;;;;;;;7.10;82.12;99194.41;4996973;28;20103;-43
2023/03/12 07:13:11;;;;;;;18.38;2.35;;;;;;;7.13;80.86;99181.53;4988826;28;20136;-45
2023/03/12 07:15:38;;;;;;;13.13;2.03;;;;;;;7.14;81.62;99173.81;4999223;28;20054;-46
2023/03/12 07:18:07;;;;;;;20.23;2.72;;;;;;;7.18;80.94;99172.94;4996720;28;20108;-42
2023/03/12 07:20:39;;;;;;;33.88;7.68;;;;;;;7.22;81.53;99165.22;4998082;28;20135;-45
2023/03/12 07:23:06;;;;;;;21.38;4.38;;;;;;;7.20;80.67;99168.63;4999240;28;20125;-49
2023/03/12 07:25:36;;;;;;;17.50;3.55;;;;;;;7.25;80.83;99176.34;5001472;28;20050;-46
2023/03/12 07:28:03;;;;;;;22.98;5.50;;;;;;;7.29;80.09;99172.03;4996872;28;20683;-46
2023/03/12 07:30:32;;;;;;;19.17;2.90;;;;;;;7.32;81.44;99187.47;5005745;28;20050;-50
2023/03/12 07:33:03;;;;;;;15.38;2.08;;;;;;;7.35;80.22;99182.31;5003351;28;20057;-47
2023/03/12 07:35:31;;;;;;;21.88;2.38;;;;;;;7.36;79.84;99199.47;5002840;28;20414;-48
2023/03/12 07:37:59;;;;;;;15.75;2.70;;;;;;;7.39;80.51;99208.91;5000202;28;20050;-45
2023/03/12 07:40:27;;;;;;;20.95;3.05;;;;;;;7.41;80.37;99208.06;4988525;28;20093;-44
2023/03/12 07:42:54;;;;;;;13.45;2.58;;;;;;;7.43;80.48;99210.66;4984749;28;20383;-44
2023/03/12 07:45:21;;;;;;;16.40;2.17;;;;;;;7.46;80.00;99208.91;4997954;28;20120;-44
2023/03/12 07:47:48;;;;;;;21.67;3.10;;;;;;;7.51;80.24;99202.88;5003382;28;20037;-46
2023/03/12 07:50:16;;;;;;;25.45;4.03;;;;;;;7.55;80.99;99194.28;5001240;28;20121;-46
2023/03/12 07:52:44;;;;;;;18.33;2.90;;;;;;;7.68;81.10;99195.94;5000835;28;20049;-41
2023/03/12 07:55:10;;;;;;;15.18;2.35;;;;;;;7.95;81.05;99203.53;5002202;28;20066;-43
2023/03/12 07:57:37;;;;;;;18.05;3.45;;;;;;;8.30;79.76;99209.31;4994829;28;20052;-46
2023/03/12 08:00:06;;;;;;;24.25;5.07;;;;;;;8.73;79.67;99190.09;4999720;28;20056;-50
2023/03/12 08:02:34;;;;;;;18.42;4.13;;;;;;;9.19;79.14;99196.53;4994470;28;20085;-45
2023/03/12 08:05:01;;;;;;;21.70;2.88;;;;;;;9.51;78.74;99208.25;4997069;28;20046;-46
2023/03/12 08:07:31;;;;;;;14.95;3.00;;;;;;;9.80;77.87;99213.94;4996355;28;20521;-46
2023/03/12 08:09:59;;;;;;;17.80;2.25;;;;;;;10.18;77.50;99214.28;4988736;28;20421;-45
2023/03/12 08:12:26;;;;;;;25.05;3.47;;;;;;;10.76;76.49;99227.22;4987104;28;20790;-46
2023/03/12 08:14:53;;;;;;;18.00;2.00;;;;;;;11.28;75.90;99210.78;5000657;28;20065;-46
2023/03/12 08:17:20;;;;;;;22.83;2.60;;;;;;;11.55;73.75;99222.31;4997768;28;20085;-42
2023/03/12 08:19:46;;;;;;;15.77;2.40;;;;;;;11.85;74.15;99208.75;4997274;28;20054;-46
2023/03/12 08:22:13;;;;;;;16.38;3.03;;;;;;;12.18;74.68;99215.84;4995399;28;20048;-47
2023/03/12 08:24:40;;;;;;;20.90;2.63;;;;;;;12.56;72.65;99211.50;4993367;28;20105;-46
2023/03/12 08:27:06;;;;;;;18.40;3.10;;;;;;;13.10;72.52;99196.28;5001160;28;20073;-47
2023/03/12 08:29:33;;;;;;;17.52;2.53;;;;;;;13.77;71.89;99198.78;4999357;28;20631;-41
2023/03/12 08:32:00;;;;;;;17.35;1.65;;;;;;;14.36;71.37;99199.59;4997633;28;20053;-46
2023/03/12 08:34:32;;;;;;;15.70;2.58;;;;;;;14.87;70.22;99197.13;5000861;28;20069;-44
2023/03/12 08:37:00;;;;;;;15.00;2.72;;;;;;;15.31;69.59;99199.94;4995745;28;20108;-50
2023/03/12 08:39:26;;;;;;;17.13;2.20;;;;;;;15.63;68.24;99193.56;5001001;28;20045;-45
2023/03/12 08:41:54;;;;;;;19.05;2.80;;;;;;;15.96;67.99;99188.88;5001957;28;20081;-49
2023/03/12 08:44:22;;;;;;;22.33;2.72;;;;;;;16.27;66.98;99192.91;4998215;28;20136;-49
2023/03/12 08:46:49;;;;;;;21.50;3.13;;;;;;;16.45;66.65;99191.31;4993031;28;20413;-46
2023/03/12 08:49:15;;;;;;;17.42;2.60;;;;;;;16.81;65.97;99197.66;4996187;28;20945;-45
2023/03/12 08:51:42;;;;;;;13.63;2.35;;;;;;;17.21;64.89;99198.63;4997486;28;20127;-44
2023/03/12 08:54:09;;;;;;;18.88;3.13;;;;;;;17.60;64.48;99190.81;4992284;28;20136;-48
2023/03/12 08:56:40;;;;;;;17.05;2.88;;;;;;;17.91;63.96;99205.09;4996505;28;20041;-44
2023/03/12 08:59:08;;;;;;;21.75;2.95;;;;;;;18.18;63.51;99202.13;5002352;28;20050;-48
2023/03/12 09:01:35;;;;;;;14.88;2.92;;;;;;;18.39;62.29;99186.28;5004052;28;20502;-45
2023/03/12 09:04:02;;;;;;;17.70;3.85;;;;;;;18.57;61.83;99186.28;4998422;28;20177;-45
2023/03/12 09:06:29;;;;;;;25.70;4.32;;;;;;;18.55;60.11;99204.72;5000913;28;20170;-43
2023/03/12 09:08:56;;;;;;;13.93;2.38;;;;;;;18.60;60.45;99207.97;4997310;28;20148;-43
2023/03/12 09:11:23;;;;;;;18.15;3.42;;;;;;;18.63;59.56;99212.19;5001490;28;20128;-48
2023/03/12 09:13:49;;;;;;;14.73;2.80;;;;;;;18.69;59.33;99222.41;5001558;28;20112;-44
2023/03/12 09:16:36;;;;;;;24.10;3.40;;;;;;;18.66;57.85;99214.69;4997994;28;20054;-45
2023/03/12 09:19:03;;;;;;;15.43;2.10;;;;;;;18.83;57.93;99228.72;4992549;28;20168;-42
2023/03/12 09:21:29;;;;;;;20.60;4.18;;;;;;;19.05;57.86;99238.94;5001614;28;20100;-47
2023/03/12 09:23:56;;;;;;;20.83;4.97;;;;;;;19.29;57.25;99232.56;5000521;28;20077;-45
2023/03/12 09:26:23;;;;;;;13.60;2.45;;;;;;;19.52;56.79;99232.19;4998282;28;20038;-43
2023/03/12 09:28:49;;;;;;;20.35;2.42;;;;;;;19.67;55.60;99218.31;5000066;28;20077;-44
2023/03/12 09:31:16;;;;;;;15.05;2.80;;;;;;;19.78;55.19;99226.47;4995444;28;20077;-45
2023/03/12 09:33:43;;;;;;;13.95;2.28;;;;;;;19.84;54.18;99226.16;4995936;28;20042;-44
2023/03/12 09:36:10;;;;;;;11.57;3.30;;;;;;;19.88;54.76;99225.03;4994044;28;20647;-47
2023/03/12 09:38:36;;;;;;;16.33;3.42;;;;;;;19.90;54.85;99210.03;5001929;28;20766;-48
2023/03/12 09:41:04;;;;;;;11.68;2.55;;;;;;;19.99;54.71;99208.69;4998018;28;20437;-50
2023/03/12 09:43:37;;;;;;;14.32;2.55;;;;;;;19.95;54.01;99188.75;4995034;28;20072;-53
2023/03/12 09:46:12;;;;;;;10.02;1.65;;;;;;;19.97;53.70;99200.03;4995390;28;20074;-46
2023/03/12 09:48:39;;;;;;;13.98;3.63;;;;;;;20.21;54.60;99196.13;4996082;28;20124;-47
2023/03/12 09:51:16;;;;;;;14.93;2.72;;;;;;;20.46;54.00;99197.38;4996875;28;20220;-45
2023/03/12 09:53:50;;;;;;;12.18;4.38;;;;;;;20.51;52.13;99200.59;4994810;28;20143;-48
2023/03/12 09:56:19;;;;;;;11.65;2.13;;;;;;;20.48;51.96;99200.75;5002620;28;20095;-48
2023/03/12 09:58:47;;;;;;;14.93;3.25;;;;;;;20.54;51.60;99209.13;4995939;28;21771;-48
2023/03/12 10:09:53;;;;;;;13.65;2.92;;;;;;;20.74;50.66;99211.56;5058772;28;20763;-46
2023/03/12 10:26:24;;;;;;;11.70;2.20;;;;;;;19.51;51.77;99179.75;5025254;27;20757;-52
2023/03/12 10:28:57;;;;;;;14.52;3.05;;;;;;;19.34;51.68;99191.16;5019658;28;20045;-49
2023/03/12 10:31:29;;;;;;;17.25;2.58;;;;;;;19.14;51.21;99177.31;5013876;28;20141;-48
2023/03/12 10:34:00;;;;;;;13.13;1.88;;;;;;;19.02;51.53;99182.25;5014113;28;20100;-54
2023/03/12 10:39:05;;;;;;;13.75;3.08;;;;;;;18.60;52.24;99186.13;5081371;27;20396;-50
2023/03/12 10:41:32;;;;;;;15.38;3.55;;;;;;;18.37;52.25;99186.34;5041704;28;20057;-52
2023/03/12 10:44:06;;;;;;;11.60;2.10;;;;;;;18.09;52.16;99176.34;5039496;28;20050;-51
2023/03/12 10:46:50;;;;;;;11.73;2.45;;;;;;;17.75;51.73;99184.00;5023892;28;20103;-47
2023/03/12 10:52:19;;;;;;;17.42;4.07;;;;;;;17.47;53.73;99180.88;5050856;27;20395;-51
2023/03/12 10:54:48;;;;;;;17.25;5.35;;;;;;;17.28;53.66;99185.25;5005864;28;20548;-49
2023/03/12 10:57:16;;;;;;;15.75;4.25;;;;;;;17.10;54.14;99179.91;5029047;28;20102;-48
2023/03/12 10:59:46;;;;;;;12.15;3.30;;;;;;;16.81;54.06;99179.38;5033280;28;20127;-50
2023/03/12 11:05:20;;;;;;;10.88;1.85;;;;;;;16.37;54.98;99173.31;5053633;27;20392;-47
2023/03/12 11:07:47;;;;;;;14.18;2.30;;;;;;;16.30;55.31;99177.09;5024254;28;20091;-48
2023/03/12 11:10:19;;;;;;;15.15;2.38;;;;;;;16.24;55.79;99187.81;5017761;28;20139;-42
2023/03/12 11:13:04;;;;;;;14.65;2.65;;;;;;;16.09;55.97;99174.44;5019587;28;20080;-44
2023/03/12 11:15:40;;;;;;;15.40;2.05;;;;;;;15.97;55.60;99169.72;5031186;28;20133;-47
2023/03/12 11:21:16;;;;;;;17.65;1.88;;;;;;;15.67;56.31;99171.66;5007148;27;20419;-49
2023/03/12 11:24:03;;;;;;;13.88;2.42;;;;;;;15.58;56.62;99160.69;4990383;28;20513;-51
2023/03/12 11:34:36;;;;;;;16.25;3.10;;;;;;;15.62;57.67;99164.91;5080135;27;20399;-47
2023/03/12 11:40:08;;;;;;;18.23;2.55;;;;;;;15.59;58.06;99155.44;5047896;28;20735;-50
2023/03/12 11:42:50;;;;;;;10.85;1.83;;;;;;;15.58;57.36;99145.91;4999355;28;20069;-45
2023/03/12 11:45:49;;;;;;;12.30;1.70;;;;;;;15.58;58.20;99138.06;5000943;28;20124;-43
2023/03/12 11:51:32;;;;;;;13.18;2.10;;;;;;;15.70;57.78;99141.13;5039711;28;20417;-48
2023/03/12 11:56:54;;;;;;;15.55;2.13;;;;;;;15.79;58.13;99141.63;5012811;27;20733;-46
2023/03/12 11:59:46;;;;;;;11.88;3.28;;;;;;;15.79;58.01;99145.97;5022181;28;20058;-44
2023/03/12 12:05:10;;;;;;;13.40;2.00;;;;;;;15.77;57.87;99138.19;5017310;27;20408;-48
2023/03/12 12:13:17;;;;;;;11.43;3.53;;;;;;;15.58;57.73;99127.63;5074735;27;20395;-46
2023/03/12 12:18:56;;;;;;;15.68;2.60;;;;;;;15.38;58.01;99105.75;5034627;28;20405;-50
2023/03/12 12:22:02;;;;;;;13.45;3.08;;;;;;;15.42;58.67;99102.13;4991355;28;20832;-46
2023/03/12 12:25:09;;;;;;;14.43;3.35;;;;;;;15.58;58.49;99098.94;5004449;28;20042;-48
2023/03/12 12:27:43;;;;;;;13.10;2.08;;;;;;;15.73;59.13;99120.09;5009449;28;20058;-44
2023/03/12 12:36:28;;;;;;;10.77;2.25;;;;;;;15.72;57.74;99089.69;5055125;27;20387;-45
2023/03/12 12:39:03;;;;;;;10.90;1.63;;;;;;;15.73;58.48;99078.34;5024735;28;20076;-51
2023/03/12 12:41:36;;;;;;;12.77;3.17;;;;;;;15.72;58.17;99080.13;5022521;28;20107;-49
2023/03/12 12:44:11;;;;;;;12.43;2.30;;;;;;;15.75;58.45;99071.31;5019051;28;20084;-46
2023/03/12 12:46:44;;;;;;;9.77;2.13;;;;;;;15.79;58.72;99072.88;5020828;28;20499;-47
2023/03/12 12:49:18;;;;;;;11.90;1.98;;;;;;;15.83;58.27;99069.22;5016355;28;20053;-48
2023/03/12 12:51:49;;;;;;;11.18;2.10;;;;;;;15.83;58.33;99071.84;5025613;28;20065;-46
2023/03/12 12:56:59;;;;;;;10.32;2.45;;;;;;;15.70;58.08;99063.66;5076845;27;20898;-47
2023/03/12 12:59:37;;;;;;;9.10;1.95;;;;;;;15.68;58.65;99061.09;5017435;28;20069;-47